Y91 weather

Home Acres Sky Ranch Airport
Lake City, Michigan, United States

Public forecast

Using degrees Fahrenheit for public forecast. Weather courtesy of forecast.io.

METAR (pilot weather report)

Closest report is Wexford County Airport, 11.0 nm (20.3 km) WSW. Retrieved 2019/06/16 19:36 UTC (0 seconds ago):

KCAD 161936Z AUTO 08004KT 10SM BKN050 OVC060 15/13 A2993 RMK AO2 T01570131

TAF (pilot weather forecast)

Closest forecast is Cherry Capital Airport, 30.8 nm (57.0 km) NW. Retrieved 2019/06/16 18:39 UTC (34 minutes ago):

TAF KTVC 161735Z 1618/1718 03006KT P6SM -SHRA SCT050 BKN090 FM161900 03006KT P6SM BKN100 FM170000 VRB04KT P6SM SCT100 FM170800 00000KT P6SM SCT200 FM171500 VRB03KT P6SM SCT150